Princeton, Louisiana
Current Conditions -  °F | °C
As of 11:58 PM on Wednesday 26 Nov 2014 (Local Time) from KBAD Reporting Station
Clear Clear  
Wind Chill: 44°   Ceiling: Unl
Heat Index: 47°   Visibility: 10mi
Dew Point: 33°   Wind: 6mph
Humidity: 57%   Direction: 300°WNW
Pressure: 30.33"   Gusts: NA
Location:  32.59°N, 93.52°W
Report Text: KBAD 270558Z AUTO 30005KT 10SM CLR 08/00 A3033 RMK AO2 SLP273 T00840004 10143 20070 401970006 52021
Loading
Personal Weather Stations






























Interactive Weather Map New forecast layout! Learn more

10-Day Weather Forecast

Advertisements
Track Severe Weather on mobile